Terminal Aerodrome Forecast
Issued by NWS Melbourne, FL

Home | Current Version | Previous Version | Text Only | Print | Product List | Glossary On
Versions: 1 2 3 4 5 6 7 8 9 10 11 12 13 14 15
066
FTUS42 KMLB 121132
TAFDAB
TAF
KDAB 121132Z 1212/1312 19002KT P6SM SKC
     FM121400 22007KT P6SM SKC
     FM121700 23013G20KT P6SM FEW250
     FM122300 24006KT P6SM SKC=

USA.gov is the U.S. government's official web portal to all federal, state and local government web resources and services.